Weather at Walden Ranch Heliport

Public forecast

Using degrees Fahrenheit for public forecast. Weather courtesy of forecast.io.

Closest aviation weather report (METAR) to Walden Ranch Heliport

Closest report is Rockwall Municipal Airport, 6.4 nm (11.8 km) SE.

(retrieved 0 seconds ago)

Closest aviation forecast (TAF) to Walden Ranch Heliport

Closest forecast is Dallas Love Field, 20.2 nm (37.4 km) WSW.

2024/07/13 09:57 Ammendment (retrieved 0 seconds ago)

TAF AMD KDAL 130855Z 1309/1406 17010KT P6SM FEW250